Terminal Aerodrome Forecast
Issued by NWS

Home | Current Version | Previous Version | Text Only | Print | Product List | Glossary On
Versions: 1 2 3 4 5 6 7 8 9 10 11 12 13 14 15 16 17 18 19
000
FTUS46 KOTX 220201 AAA
TAFPUW
TAF AMD
KPUW 220201Z 2202/2224 26008KT 1 1/2SM -SN BR SCT005 OVC024
     FM220300 24015G25KT 6SM -SHSN SCT007 BKN015 OVC040
     FM220500 24014G20KT P6SM SCT030 BKN040 OVC100
     FM220700 24013KT P6SM SCT040 BKN150
     FM221400 24008KT P6SM BKN012 BKN200
     FM221800 24010KT P6SM BKN025 BKN200=

USA.gov is the U.S. government's official web portal to all federal, state and local government web resources and services.